Kennells Beach, North Carolina
Current Conditions -  °F | °C
As of 3:54 PM on Saturday 20 Dec 2014 (Local Time) from KEWN Reporting Station
Light Rain Light Rain  
Wind Chill: 39°   Ceiling: 10000
Heat Index: 43°   Visibility: 10mi
Dew Point: 37°   Wind: 6mph
Humidity: 80%   Direction: 20°NNE
Pressure: 30.27"   Gusts: NA
Location:  35.1354°N, 76.8853°W
Report Text: KEWN 202054Z 02005KT 10SM -RA FEW009 SCT080 OVC100 06/03 A3027 RMK AO2 RAE22B33 SLP248 P0000 60001 T00610028 50001
Loading
Personal Weather Stations






























Interactive Weather Map New forecast layout! Learn more

10-Day Weather Forecast

Advertisements
Track Severe Weather on mobile